createdAt,value
2024-01-15T00:00:12.794Z,15.63
2024-01-15T00:02:39.564Z,13.05
2024-01-15T00:05:08.080Z,11.90
2024-01-15T00:07:34.622Z,14.38
2024-01-15T00:10:01.198Z,14.68
2024-01-15T00:12:28.224Z,13.73
2024-01-15T00:14:55.531Z,16.08
2024-01-15T00:17:22.165Z,13.35
2024-01-15T00:19:49.173Z,12.52
2024-01-15T00:22:15.761Z,11.98
2024-01-15T00:24:43.035Z,11.77
2024-01-15T00:27:09.642Z,15.23
2024-01-15T00:29:36.203Z,12.20
2024-01-15T00:32:02.877Z,12.52
2024-01-15T00:34:29.662Z,11.93
2024-01-15T00:36:56.251Z,14.55
2024-01-15T00:39:23.084Z,14.25
2024-01-15T00:41:49.737Z,13.05
2024-01-15T00:44:16.258Z,11.55
2024-01-15T00:46:47.146Z,13.95
2024-01-15T00:49:17.545Z,10.65
2024-01-15T00:51:44.361Z,12.95
2024-01-15T00:54:11.118Z,11.73
2024-01-15T00:56:38.132Z,13.20
2024-01-15T00:59:04.777Z,12.15
2024-01-15T01:01:31.336Z,12.82
2024-01-15T01:03:58.540Z,12.65
2024-01-15T01:06:26.007Z,12.38
2024-01-15T01:08:54.632Z,11.80
2024-01-15T01:11:21.394Z,12.57
2024-01-15T01:13:47.846Z,12.63
2024-01-15T01:16:14.377Z,13.65
2024-01-15T01:18:41.086Z,14.73
2024-01-15T01:21:07.783Z,13.38
2024-01-15T01:23:34.316Z,12.52
2024-01-15T01:26:01.672Z,14.85
2024-01-15T01:28:29.115Z,13.68
2024-01-15T01:30:55.639Z,13.63
2024-01-15T01:33:22.274Z,14.52
2024-01-15T01:35:48.935Z,15.25
2024-01-15T01:38:15.393Z,15.77
2024-01-15T01:40:44.280Z,13.05
2024-01-15T01:43:11.462Z,12.25
2024-01-15T01:45:38.089Z,15.43
2024-01-15T01:48:05.474Z,14.10
2024-01-15T01:50:33.159Z,16.42
2024-01-15T01:53:01.145Z,13.88
2024-01-15T01:55:30.472Z,15.40
2024-01-15T01:57:57.447Z,14.30
2024-01-15T02:00:24.144Z,13.80
2024-01-15T02:02:50.758Z,15.23
2024-01-15T02:05:21.493Z,15.82
2024-01-15T02:07:48.353Z,14.68
2024-01-15T02:10:15.200Z,12.77
2024-01-15T02:12:41.831Z,11.95
2024-01-15T02:15:08.703Z,11.68
2024-01-15T02:17:35.385Z,13.73
2024-01-15T02:20:02.389Z,12.45
2024-01-15T02:22:28.845Z,12.50
2024-01-15T02:24:55.352Z,12.07
2024-01-15T02:27:22.014Z,14.35
2024-01-15T02:29:49.682Z,12.75
2024-01-15T02:32:16.257Z,12.18
2024-01-15T02:34:42.991Z,12.82
2024-01-15T02:37:09.596Z,10.80
2024-01-15T02:39:36.065Z,10.40
2024-01-15T02:42:02.811Z,11.20
2024-01-15T02:44:29.332Z,11.18
2024-01-15T02:46:55.817Z,14.95
2024-01-15T02:49:22.366Z,13.40
2024-01-15T02:51:49.163Z,10.18
2024-01-15T02:54:15.653Z,11.85
2024-01-15T02:56:42.166Z,15.30
2024-01-15T02:59:08.895Z,12.30
2024-01-15T03:01:35.372Z,9.85
2024-01-15T03:04:04.732Z,9.32
2024-01-15T03:06:31.468Z,10.50
2024-01-15T03:08:57.962Z,9.25
2024-01-15T03:11:24.504Z,12.77
2024-01-15T03:13:50.984Z,9.75
2024-01-15T03:16:17.448Z,10.68
2024-01-15T03:18:46.587Z,14.30
2024-01-15T03:21:13.226Z,11.80
2024-01-15T03:23:39.729Z,8.45
2024-01-15T03:26:06.302Z,9.15
2024-01-15T03:28:32.892Z,11.18
2024-01-15T03:30:59.682Z,7.75
2024-01-15T03:33:26.623Z,10.82
2024-01-15T03:35:53.167Z,10.35
2024-01-15T03:38:19.837Z,10.10
2024-01-15T03:40:46.438Z,9.75
2024-01-15T03:43:13.038Z,10.65
2024-01-15T03:45:39.767Z,10.88
2024-01-15T03:48:06.661Z,7.32
2024-01-15T03:50:33.225Z,13.15
2024-01-15T03:52:59.729Z,8.00
2024-01-15T03:55:26.261Z,9.65
2024-01-15T03:57:52.766Z,8.85
2024-01-15T04:00:19.771Z,10.68
2024-01-15T04:02:46.279Z,9.10
2024-01-15T04:05:12.813Z,12.27
2024-01-15T04:07:39.290Z,7.05
2024-01-15T04:10:06.159Z,10.60
2024-01-15T04:12:32.826Z,8.32
2024-01-15T04:14:59.497Z,8.82
2024-01-15T04:17:26.047Z,7.95
2024-01-15T04:19:52.633Z,9.98
2024-01-15T04:22:19.276Z,13.13
2024-01-15T04:24:45.894Z,7.97
2024-01-15T04:27:12.577Z,6.30
2024-01-15T04:29:41.650Z,9.82
2024-01-15T04:32:08.513Z,7.13
2024-01-15T04:34:35.171Z,8.20
2024-01-15T04:37:01.737Z,10.10
2024-01-15T04:39:28.419Z,8.48
2024-01-15T04:41:55.034Z,10.18
2024-01-15T04:44:21.643Z,7.00
2024-01-15T04:46:48.117Z,6.53
2024-01-15T04:49:14.759Z,5.88
2024-01-15T04:51:41.376Z,7.35
2024-01-15T04:54:10.096Z,11.02
2024-01-15T04:56:36.696Z,5.40
2024-01-15T04:59:03.309Z,8.13
2024-01-15T05:01:33.886Z,7.05
2024-01-15T05:04:00.861Z,8.77
2024-01-15T05:06:27.585Z,6.80
2024-01-15T05:08:54.154Z,4.20
2024-01-15T05:11:20.850Z,7.85
2024-01-15T05:13:47.412Z,6.15
2024-01-15T05:16:13.925Z,6.47
2024-01-15T05:18:40.545Z,9.10
2024-01-15T05:21:07.241Z,6.82
2024-01-15T05:23:33.772Z,9.30
2024-01-15T05:26:00.302Z,6.70
2024-01-15T05:28:26.945Z,6.60
2024-01-15T05:30:53.968Z,10.77
2024-01-15T05:33:20.650Z,6.35
2024-01-15T05:35:47.481Z,5.80
2024-01-15T05:38:14.016Z,21.95
2024-01-15T05:40:40.431Z,7.35
2024-01-15T05:43:07.089Z,3.97
2024-01-15T05:45:35.940Z,10.32
2024-01-15T05:48:02.698Z,6.80
2024-01-15T05:50:29.341Z,8.40
2024-01-15T05:52:55.824Z,5.18
2024-01-15T05:55:22.333Z,10.00
2024-01-15T05:57:49.074Z,7.57
2024-01-15T06:00:16.205Z,8.18
2024-01-15T06:02:42.877Z,6.70
2024-01-15T06:05:09.368Z,8.52
2024-01-15T06:07:37.305Z,6.30
2024-01-15T06:10:05.765Z,8.93
2024-01-15T06:12:33.463Z,6.53
2024-01-15T06:15:01.072Z,5.40
2024-01-15T06:17:27.675Z,9.55
2024-01-15T06:19:54.369Z,8.35
2024-01-15T06:22:21.263Z,6.18
2024-01-15T06:24:47.817Z,5.13
2024-01-15T06:27:14.392Z,7.90
2024-01-15T06:29:50.394Z,4.88
2024-01-15T06:32:20.240Z,7.93
2024-01-15T06:34:46.758Z,12.93
2024-01-15T06:37:13.425Z,7.68
2024-01-15T06:39:40.009Z,9.43
2024-01-15T06:42:06.653Z,6.38
2024-01-15T06:44:33.311Z,4.60
2024-01-15T06:47:03.518Z,3.78
2024-01-15T06:49:30.998Z,5.63
2024-01-15T06:51:58.031Z,6.30
2024-01-15T06:54:24.936Z,6.20
2024-01-15T06:56:51.707Z,6.30
2024-01-15T06:59:20.214Z,6.68
2024-01-15T07:01:47.542Z,6.18
2024-01-15T07:04:14.546Z,7.03
2024-01-15T07:06:41.325Z,8.00
2024-01-15T07:09:09.132Z,7.97
2024-01-15T07:11:35.644Z,10.55
2024-01-15T07:14:02.086Z,6.07
2024-01-15T07:16:36.620Z,4.40
2024-01-15T07:19:05.165Z,6.40
2024-01-15T07:21:31.838Z,8.50
2024-01-15T07:23:58.382Z,6.93
2024-01-15T07:26:24.913Z,6.35
2024-01-15T07:28:51.849Z,7.53
2024-01-15T07:31:22.665Z,6.15
2024-01-15T07:33:49.411Z,8.13
2024-01-15T07:36:16.130Z,7.07
2024-01-15T07:38:42.920Z,5.40
2024-01-15T07:41:09.513Z,22.45
2024-01-15T07:43:36.278Z,5.47
2024-01-15T07:46:06.079Z,5.72
2024-01-15T07:48:32.745Z,5.47
2024-01-15T07:50:59.349Z,8.55
2024-01-15T07:53:25.884Z,4.65
2024-01-15T07:55:52.386Z,5.82
2024-01-15T07:58:18.969Z,6.07
2024-01-15T08:00:45.977Z,11.90
2024-01-15T08:03:14.008Z,4.65
2024-01-15T08:05:40.959Z,6.35
2024-01-15T08:08:07.728Z,6.88
2024-01-15T08:10:36.957Z,6.90
2024-01-15T08:13:03.545Z,9.48
2024-01-15T08:15:31.722Z,5.68
2024-01-15T08:17:58.837Z,5.72
2024-01-15T08:20:25.754Z,4.95
2024-01-15T08:22:52.959Z,6.32
2024-01-15T08:25:19.603Z,5.90
2024-01-15T08:27:46.240Z,4.22
2024-01-15T08:30:13.449Z,8.07
2024-01-15T08:32:43.395Z,6.05
2024-01-15T08:35:10.552Z,9.18
2024-01-15T08:37:37.405Z,8.07
2024-01-15T08:40:04.903Z,8.50
2024-01-15T08:42:31.465Z,10.32
2024-01-15T08:44:58.172Z,6.03
2024-01-15T08:47:24.761Z,7.22
2024-01-15T08:49:51.378Z,6.75
2024-01-15T08:52:17.882Z,5.38
2024-01-15T08:54:44.417Z,5.90
2024-01-15T08:57:12.786Z,7.65
2024-01-15T08:59:39.918Z,9.05
2024-01-15T09:02:06.708Z,8.93
2024-01-15T09:04:33.287Z,6.68
2024-01-15T09:06:59.951Z,4.55
2024-01-15T09:09:26.447Z,6.43
2024-01-15T09:11:53.087Z,13.02
2024-01-15T09:14:30.578Z,12.02
2024-01-15T09:17:04.551Z,7.18
2024-01-15T09:19:31.189Z,9.35
2024-01-15T09:21:58.714Z,7.32
2024-01-15T09:24:27.935Z,3.85
2024-01-15T09:26:55.590Z,6.50
2024-01-15T09:29:22.188Z,6.43
2024-01-15T09:31:48.785Z,4.32
2024-01-15T09:34:16.122Z,6.03
2024-01-15T09:36:43.622Z,5.28
2024-01-15T09:39:12.218Z,6.65
2024-01-15T09:41:39.560Z,5.40
2024-01-15T09:44:06.723Z,6.35
2024-01-15T09:46:33.979Z,8.95
2024-01-15T09:49:01.872Z,4.60
2024-01-15T09:51:32.677Z,4.90
2024-01-15T09:56:25.858Z,5.70
2024-01-15T09:58:55.996Z,5.70
2024-01-15T10:01:23.941Z,4.82
2024-01-15T10:03:51.738Z,3.95
2024-01-15T10:06:22.472Z,4.47
2024-01-15T10:08:52.401Z,6.00
2024-01-15T10:11:19.172Z,5.95
2024-01-15T10:13:50.492Z,3.13
2024-01-15T10:16:17.737Z,3.67
2024-01-15T10:18:44.333Z,3.70
2024-01-15T10:21:11.004Z,6.38
2024-01-15T10:23:37.690Z,6.25
2024-01-15T10:26:04.742Z,4.30
2024-01-15T10:28:32.766Z,6.00
2024-01-15T10:31:00.693Z,3.85
2024-01-15T10:33:28.140Z,4.75
2024-01-15T10:35:58.761Z,6.30
2024-01-15T10:38:25.999Z,4.32
2024-01-15T10:40:57.350Z,5.10
2024-01-15T10:43:28.148Z,5.93
2024-01-15T10:45:56.361Z,6.10
2024-01-15T10:48:23.050Z,5.30
2024-01-15T10:50:49.792Z,3.63
2024-01-15T10:53:17.761Z,4.95
2024-01-15T10:55:44.967Z,2.92
2024-01-15T10:58:11.639Z,3.28
2024-01-15T11:00:39.564Z,4.50
2024-01-15T11:03:07.371Z,2.47
2024-01-15T11:05:44.630Z,4.47
2024-01-15T11:08:12.180Z,3.45
2024-01-15T11:10:43.335Z,4.68
2024-01-15T11:13:30.818Z,5.63
2024-01-15T11:16:12.924Z,3.50
2024-01-15T11:18:42.309Z,4.05
2024-01-15T11:21:18.158Z,4.35
2024-01-15T11:23:52.470Z,3.97
2024-01-15T11:26:56.248Z,4.22
2024-01-15T11:29:30.724Z,5.82
2024-01-15T11:32:08.940Z,3.75
2024-01-15T11:35:03.474Z,3.78
2024-01-15T11:37:53.884Z,4.18
2024-01-15T11:40:33.845Z,3.35
2024-01-15T11:43:00.816Z,3.97
2024-01-15T11:45:28.292Z,4.65
2024-01-15T11:48:12.643Z,4.75
2024-01-15T11:50:44.104Z,3.22
2024-01-15T11:53:37.536Z,3.30
2024-01-15T11:56:07.389Z,4.60
2024-01-15T11:58:35.000Z,4.55
2024-01-15T12:01:01.805Z,4.50
2024-01-15T12:03:28.483Z,4.75
2024-01-15T12:05:55.219Z,4.10
2024-01-15T12:08:23.547Z,4.25
2024-01-15T12:10:50.236Z,5.03
2024-01-15T12:13:18.821Z,4.18
2024-01-15T12:15:47.455Z,4.45
2024-01-15T12:18:16.483Z,4.32
2024-01-15T12:20:44.802Z,4.63
2024-01-15T12:23:12.168Z,5.22
2024-01-15T12:25:39.386Z,4.07
2024-01-15T12:28:06.818Z,12.48
2024-01-15T12:30:35.736Z,3.58
2024-01-15T12:33:06.259Z,3.55
2024-01-15T12:35:35.929Z,3.25
2024-01-15T12:38:06.335Z,3.72
2024-01-15T12:40:36.197Z,5.18
2024-01-15T12:43:04.167Z,4.40
2024-01-15T12:45:31.898Z,4.75
2024-01-15T12:47:59.022Z,3.60
2024-01-15T12:50:27.275Z,3.35
2024-01-15T12:52:54.100Z,6.10
2024-01-15T12:55:20.803Z,4.55
2024-01-15T12:57:47.573Z,3.58
2024-01-15T13:00:16.231Z,5.47
2024-01-15T13:02:44.444Z,4.75
2024-01-15T13:05:13.232Z,3.58
2024-01-15T13:07:41.161Z,6.65
2024-01-15T13:10:10.002Z,5.25
2024-01-15T13:12:36.796Z,3.70
2024-01-15T13:15:04.813Z,5.60
2024-01-15T13:17:32.077Z,5.95
2024-01-15T13:19:58.927Z,6.22
2024-01-15T13:22:31.043Z,5.65
2024-01-15T13:24:57.692Z,5.15
2024-01-15T13:27:24.570Z,8.50
2024-01-15T13:29:51.192Z,6.53
2024-01-15T13:32:26.989Z,9.40
2024-01-15T13:34:53.761Z,8.35
2024-01-15T13:37:20.408Z,7.40
2024-01-15T13:39:46.959Z,9.65
2024-01-15T13:42:13.681Z,5.93
2024-01-15T13:44:41.458Z,6.97
2024-01-15T13:47:08.081Z,7.35
2024-01-15T13:49:35.442Z,8.85
2024-01-15T13:52:04.867Z,10.90
2024-01-15T13:54:42.051Z,7.82
2024-01-15T13:57:15.811Z,8.85
2024-01-15T13:59:42.419Z,6.50
2024-01-15T14:02:09.020Z,6.55
2024-01-15T14:04:35.636Z,5.75
2024-01-15T14:07:02.304Z,6.18
2024-01-15T14:09:28.827Z,9.05
2024-01-15T14:11:55.700Z,6.85
2024-01-15T14:14:22.184Z,6.72
2024-01-15T14:16:48.720Z,6.05
2024-01-15T14:19:16.532Z,7.78
2024-01-15T14:21:43.361Z,5.55
2024-01-15T14:24:09.904Z,10.43
2024-01-15T14:26:36.397Z,4.63
2024-01-15T14:29:02.910Z,10.73
2024-01-15T14:31:30.075Z,6.75
2024-01-15T14:33:56.838Z,5.70
2024-01-15T14:36:23.648Z,9.23
2024-01-15T14:38:50.199Z,8.25
2024-01-15T14:41:18.042Z,4.78
2024-01-15T14:43:46.072Z,8.45
2024-01-15T14:46:12.633Z,5.45
2024-01-15T14:48:39.347Z,7.53
2024-01-15T14:51:06.472Z,10.30
2024-01-15T14:53:33.141Z,8.10
2024-01-15T14:55:59.924Z,7.68
2024-01-15T14:58:26.595Z,6.18
2024-01-15T15:00:53.440Z,11.15
2024-01-15T15:03:20.084Z,5.82
2024-01-15T15:05:46.934Z,6.50
2024-01-15T15:08:13.899Z,5.72
2024-01-15T15:10:41.552Z,5.30
2024-01-15T15:13:08.264Z,4.85
2024-01-15T15:15:35.434Z,7.30
2024-01-15T15:18:02.772Z,3.63
2024-01-15T15:20:29.515Z,4.95
2024-01-15T15:22:57.043Z,7.10
2024-01-15T15:25:24.171Z,7.53
2024-01-15T15:27:50.727Z,6.20
2024-01-15T15:30:17.333Z,5.07
2024-01-15T15:32:44.262Z,6.43
2024-01-15T15:35:11.595Z,8.50
2024-01-15T15:37:38.520Z,7.15
2024-01-15T15:40:09.613Z,8.75
2024-01-15T15:42:36.968Z,8.05
2024-01-15T15:45:04.786Z,4.25
2024-01-15T15:47:31.639Z,6.03
2024-01-15T15:49:58.539Z,6.20
2024-01-15T15:52:25.426Z,7.47
2024-01-15T15:54:52.230Z,9.20
2024-01-15T15:57:18.952Z,6.55
2024-01-15T15:59:45.622Z,6.60
2024-01-15T16:02:12.143Z,4.72
2024-01-15T16:04:38.960Z,4.47
2024-01-15T16:07:10.966Z,5.63
2024-01-15T16:09:38.098Z,7.07
2024-01-15T16:12:05.140Z,5.03
2024-01-15T16:14:31.667Z,4.93
2024-01-15T16:23:13.629Z,4.68
2024-01-15T16:23:26.934Z,3.40
2024-01-15T16:23:42.332Z,5.15
2024-01-15T16:25:19.776Z,5.55
2024-01-15T16:27:46.708Z,3.03
2024-01-15T16:30:24.730Z,4.22
2024-01-15T16:32:56.631Z,3.20
2024-01-15T16:35:23.863Z,3.58
2024-01-15T16:37:50.962Z,6.18
2024-01-15T16:40:17.768Z,6.53
2024-01-15T16:42:46.138Z,3.50
2024-01-15T16:45:12.752Z,6.97
2024-01-15T16:47:39.723Z,4.93
2024-01-15T16:50:06.672Z,7.32
2024-01-15T16:52:33.147Z,4.68
2024-01-15T16:55:00.241Z,3.17
2024-01-15T16:57:26.819Z,3.13
2024-01-15T16:59:53.431Z,7.32
2024-01-15T17:02:20.219Z,5.50
2024-01-15T17:04:47.021Z,4.28
2024-01-15T17:07:14.856Z,3.85
2024-01-15T17:09:41.602Z,7.28
2024-01-15T17:12:08.462Z,3.53
2024-01-15T17:14:35.409Z,7.75
2024-01-15T17:17:02.472Z,5.25
2024-01-15T17:19:29.270Z,5.13
2024-01-15T17:21:55.974Z,8.05
2024-01-15T17:24:22.548Z,6.90
2024-01-15T17:26:50.052Z,6.38
2024-01-15T17:29:17.548Z,5.70
2024-01-15T17:31:44.126Z,5.68
2024-01-15T17:34:11.783Z,12.18
2024-01-15T17:36:38.686Z,8.65
2024-01-15T17:39:07.232Z,9.57
2024-01-15T17:41:36.528Z,8.05
2024-01-15T17:44:03.439Z,6.75
2024-01-15T17:46:30.420Z,7.55
2024-01-15T17:49:03.756Z,7.63
2024-01-15T17:51:34.159Z,6.70
2024-01-15T17:54:01.773Z,6.25
2024-01-15T17:56:28.669Z,6.95
2024-01-15T17:58:56.814Z,9.73
2024-01-15T18:01:23.499Z,13.98
2024-01-15T18:03:51.834Z,10.30
2024-01-15T18:06:18.516Z,9.85
2024-01-15T18:08:45.287Z,8.57
2024-01-15T18:11:19.220Z,10.60
2024-01-15T18:13:46.717Z,8.75
2024-01-15T18:16:13.573Z,9.20
2024-01-15T18:18:40.257Z,9.27
2024-01-15T18:21:07.817Z,10.10
2024-01-15T18:23:34.965Z,11.75
2024-01-15T18:26:01.829Z,10.32
2024-01-15T18:28:28.490Z,11.75
2024-01-15T18:30:55.090Z,9.52
2024-01-15T18:33:24.329Z,12.95
2024-01-15T18:35:52.436Z,12.30
2024-01-15T18:38:19.190Z,9.75
2024-01-15T18:40:45.708Z,10.45
2024-01-15T18:43:12.141Z,9.25
2024-01-15T18:45:38.963Z,7.03
2024-01-15T18:48:07.580Z,7.55
2024-01-15T18:50:34.374Z,7.07
2024-01-15T18:53:00.945Z,7.93
2024-01-15T18:55:27.497Z,8.00
2024-01-15T18:57:59.149Z,6.72
2024-01-15T19:00:27.257Z,7.25
2024-01-15T19:02:58.912Z,7.60
2024-01-15T19:05:25.972Z,7.88
2024-01-15T19:07:52.542Z,5.82
2024-01-15T19:10:19.084Z,8.20
2024-01-15T19:12:46.226Z,6.68
2024-01-15T19:15:12.858Z,5.80
2024-01-15T19:17:39.921Z,7.25
2024-01-15T19:20:08.452Z,8.82
2024-01-15T19:22:34.970Z,13.43
2024-01-15T19:25:02.014Z,6.75
2024-01-15T19:27:28.551Z,6.55
2024-01-15T19:29:55.049Z,8.18
2024-01-15T19:32:22.013Z,8.88
2024-01-15T19:34:49.171Z,10.75
2024-01-15T19:37:15.772Z,9.80
2024-01-15T19:39:42.231Z,6.53
2024-01-15T19:42:08.821Z,10.00
2024-01-15T19:44:35.893Z,7.45
2024-01-15T19:47:02.674Z,8.02
2024-01-15T19:49:29.679Z,6.22
2024-01-15T19:51:56.199Z,9.07
2024-01-15T19:54:22.890Z,7.75
2024-01-15T19:56:49.641Z,4.57
2024-01-15T19:59:16.934Z,9.95
2024-01-15T20:01:44.754Z,6.05
2024-01-15T20:04:11.255Z,5.00
2024-01-15T20:06:37.933Z,4.47
2024-01-15T20:09:04.532Z,4.65
2024-01-15T20:11:32.189Z,11.77
2024-01-15T20:13:58.717Z,4.95
2024-01-15T20:16:25.317Z,5.13
2024-01-15T20:18:52.107Z,6.25
2024-01-15T20:21:19.437Z,7.85
2024-01-15T20:23:54.668Z,6.45
2024-01-15T20:26:25.714Z,6.22
2024-01-15T20:28:52.437Z,4.80
2024-01-15T20:31:19.085Z,6.32
2024-01-15T20:33:45.774Z,6.25
2024-01-15T20:36:14.210Z,7.20
2024-01-15T20:38:41.030Z,3.58
2024-01-15T20:41:08.307Z,6.32
2024-01-15T20:43:37.685Z,8.55
2024-01-15T20:46:04.315Z,7.90
2024-01-15T20:48:31.409Z,4.70
2024-01-15T20:50:59.115Z,4.80
2024-01-15T20:53:26.375Z,4.95
2024-01-15T20:55:52.960Z,3.17
2024-01-15T20:58:23.839Z,3.90
2024-01-15T21:00:51.080Z,2.88
2024-01-15T21:03:19.566Z,6.13
2024-01-15T21:05:46.538Z,3.90
2024-01-15T21:08:13.615Z,4.70
2024-01-15T21:10:41.398Z,4.53
2024-01-15T21:13:08.335Z,5.03
2024-01-15T21:15:35.375Z,4.30
2024-01-15T21:18:03.713Z,3.95
2024-01-15T21:20:31.164Z,5.13
2024-01-15T21:22:57.700Z,5.13
2024-01-15T21:25:24.192Z,5.32
2024-01-15T21:27:50.807Z,5.82
2024-01-15T21:30:17.290Z,5.22
2024-01-15T21:32:44.069Z,8.70
2024-01-15T21:35:13.280Z,5.88
2024-01-15T21:37:41.533Z,8.75
2024-01-15T21:40:10.825Z,6.25
2024-01-15T21:42:38.368Z,5.30
2024-01-15T21:45:08.142Z,5.90
2024-01-15T21:47:36.849Z,4.30
2024-01-15T21:50:09.936Z,5.10
2024-01-15T21:52:36.725Z,4.93
2024-01-15T21:55:03.704Z,5.18
2024-01-15T21:57:32.417Z,6.88
2024-01-15T22:00:01.514Z,8.13
2024-01-15T22:02:30.623Z,7.68
2024-01-15T22:04:57.684Z,7.53
2024-01-15T22:07:24.119Z,7.10
2024-01-15T22:09:50.634Z,8.00
2024-01-15T22:12:17.147Z,9.55
2024-01-15T22:14:43.797Z,7.97
2024-01-15T22:17:10.377Z,7.68
2024-01-15T22:19:37.036Z,10.15
2024-01-15T22:22:04.012Z,6.28
2024-01-15T22:24:30.553Z,10.00
2024-01-15T22:26:57.092Z,8.55
2024-01-15T22:29:24.362Z,6.05
2024-01-15T22:31:50.859Z,7.60
2024-01-15T22:34:18.781Z,6.60
2024-01-15T22:36:45.418Z,6.50
2024-01-15T22:39:12.206Z,9.13
2024-01-15T22:41:38.786Z,7.07
2024-01-15T22:44:05.608Z,10.02
2024-01-15T22:46:32.189Z,8.68
2024-01-15T22:48:58.720Z,9.18
2024-01-15T22:51:25.518Z,10.40
2024-01-15T22:53:54.773Z,9.32
2024-01-15T22:56:22.003Z,7.60
2024-01-15T22:58:48.937Z,7.57
2024-01-15T23:01:15.562Z,7.32
2024-01-15T23:03:42.099Z,8.80
2024-01-15T23:06:19.742Z,9.85
2024-01-15T23:08:46.838Z,7.88
2024-01-15T23:11:13.734Z,8.43
2024-01-15T23:13:43.648Z,9.68
2024-01-15T23:16:14.376Z,9.80
2024-01-15T23:21:09.896Z,8.45
2024-01-15T23:23:37.075Z,8.90
2024-01-15T23:26:04.048Z,10.52
2024-01-15T23:28:32.226Z,12.52
2024-01-15T23:30:58.804Z,7.60
2024-01-15T23:33:25.353Z,8.30
2024-01-15T23:35:54.373Z,9.95
2024-01-15T23:38:23.246Z,7.53
2024-01-15T23:40:49.725Z,8.10
2024-01-15T23:43:16.316Z,7.78
2024-01-15T23:45:42.872Z,10.02
2024-01-15T23:48:09.470Z,7.40
2024-01-15T23:50:36.030Z,6.63
2024-01-15T23:53:02.549Z,6.95
2024-01-15T23:55:29.158Z,6.03
2024-01-15T23:57:56.222Z,6.60
